Rayo — CA4305 — position and weather

sailwx.info

Track history (hours):
 
Tides and Currents Weather Stations Pressure Air Temp Water Temp Dewpoint Dewpoint Depression Visibility Wind Speed Wind Dir Waves Ship Positions

Rayo

Last reported at 2017-Oct-22 22:23 UTC. Time now 2017-Nov-19 17:32 UTC.
Position S 32°56' W 071°32'.
Warning: this ship's position is 27 days out of date.

Length 15 m.

Type: Sailing vessel. MMSI: 725001044.

Date/timePositionNaut miles runAvg speedWind from/ knotsBaromVisibWave heightAir tempDewpointWater temp
2017-Oct-22 22:23S 32°56' W 071°32'1 0.1
2017-Oct-22 13:49S 32°56' W 071°33'1 3.0
2017-Oct-22 13:28S 32°56' W 071°32'0 0.0
2017-Oct-22 12:58S 32°56' W 071°32'0 0.0
2017-Oct-21 21:35S 32°56' W 071°32'0 0.0
2017-Oct-21 21:29S 32°56' W 071°32'1 0.2
2017-Oct-21 13:35S 32°57' W 071°34'1 7.7
2017-Oct-21 13:30S 32°56' W 071°33'1 1.9
2017-Oct-21 13:00S 32°56' W 071°32'0 0.0
2017-Oct-21 12:30S 32°56' W 071°32'0 0.0
2017-Oct-21 11:57S 32°56' W 071°32'0 0.0
2017-Oct-20 22:28S 32°56' W 071°32'0 0.3
2017-Oct-20 22:00S 32°56' W 071°32'0 0.3
2017-Oct-20 21:30S 32°56' W 071°32'0 0.0
2017-Oct-20 19:34S 32°56' W 071°32'0 0.0
2017-Oct-20 19:07S 32°56' W 071°32'0 0.0
2017-Oct-20 19:00S 32°56' W 071°32'0 0.0
2017-Oct-19 15:38S 32°56' W 071°32'  
2017-Oct-15 20:07S 32°56' W 071°32'0 0.0
2017-Oct-15 19:58S 32°56' W 071°32'0 0.8
2017-Oct-15 19:30S 32°55' W 071°32'4 5.2
2017-Oct-15 18:48S 32°58' W 071°36'1 3.7
2017-Oct-15 18:30S 32°56' W 071°36'3 6.0
2017-Oct-15 18:00S 32°55' W 071°32'1 1.4
2017-Oct-15 17:30S 32°55' W 071°33'0 0.7
2017-Oct-15 17:00S 32°55' W 071°33'1 2.7
2017-Oct-15 16:30S 32°55' W 071°32'1 1.8
2017-Oct-15 15:59S 32°56' W 071°32'0 0.0
2017-Oct-15 15:29S 32°56' W 071°32'0 0.0
2017-Oct-15 14:59S 32°56' W 071°32'  
Track history (hours):
 
Tides and Currents Weather Stations Pressure Air Temp Water Temp Dewpoint Dewpoint Depression Visibility Wind Speed Wind Dir Waves Ship Positions

Rayo

Last reported at 2017-Oct-22 22:23 UTC. Time now 2017-Nov-19 17:32 UTC.
Position S 32°56' W 071°32'.
Warning: this ship's position is 27 days out of date.

Length 15 m.

Type: Sailing vessel. MMSI: 725001044.

Date/timePositionNaut miles runAvg speedWind from/ knotsBaromVisibWave heightAir tempDewpointWater temp
2017-Oct-22 22:23S 32°56' W 071°32'1 0.1
2017-Oct-22 13:49S 32°56' W 071°33'1 3.0
2017-Oct-22 13:28S 32°56' W 071°32'0 0.0
2017-Oct-22 12:58S 32°56' W 071°32'0 0.0
2017-Oct-21 21:35S 32°56' W 071°32'0 0.0
2017-Oct-21 21:29S 32°56' W 071°32'1 0.2
2017-Oct-21 13:35S 32°57' W 071°34'1 7.7
2017-Oct-21 13:30S 32°56' W 071°33'1 1.9
2017-Oct-21 13:00S 32°56' W 071°32'0 0.0
2017-Oct-21 12:30S 32°56' W 071°32'0 0.0
2017-Oct-21 11:57S 32°56' W 071°32'0 0.0
2017-Oct-20 22:28S 32°56' W 071°32'0 0.3
2017-Oct-20 22:00S 32°56' W 071°32'0 0.3
2017-Oct-20 21:30S 32°56' W 071°32'0 0.0
2017-Oct-20 19:34S 32°56' W 071°32'0 0.0
2017-Oct-20 19:07S 32°56' W 071°32'0 0.0
2017-Oct-20 19:00S 32°56' W 071°32'0 0.0
2017-Oct-19 15:38S 32°56' W 071°32'  
2017-Oct-15 20:07S 32°56' W 071°32'0 0.0
2017-Oct-15 19:58S 32°56' W 071°32'0 0.8
2017-Oct-15 19:30S 32°55' W 071°32'4 5.2
2017-Oct-15 18:48S 32°58' W 071°36'1 3.7
2017-Oct-15 18:30S 32°56' W 071°36'3 6.0
2017-Oct-15 18:00S 32°55' W 071°32'1 1.4
2017-Oct-15 17:30S 32°55' W 071°33'0 0.7
2017-Oct-15 17:00S 32°55' W 071°33'1 2.7
2017-Oct-15 16:30S 32°55' W 071°32'1 1.8
2017-Oct-15 15:59S 32°56' W 071°32'0 0.0
2017-Oct-15 15:29S 32°56' W 071°32'0 0.0
2017-Oct-15 14:59S 32°56' W 071°32'  

Dump ship's entire track history